Time;durP1;ratioP1;P1;durP2;ratioP2;P2;SDS_P1;SDS_P2;PMS_P1;PMS_P2;Temp;Humidity;BMP_temperature;BMP_pressure;BME280_temperature;BME280_humidity;BME280_pressure;Samples;Min_cycle;Max_cycle;Signal;HPM_P1;HPM_P2
2023/07/04 00:01:11;;;;;;;0.30;0.30;;;30.00;78.90;;;30.42;64.12;94803.69;5095473;28;20229;-41
2023/07/04 00:03:41;;;;;;;0.50;0.50;;;29.90;78.90;;;30.40;63.85;94800.50;5095388;28;20234;-43
2023/07/04 00:06:11;;;;;;;0.40;0.40;;;29.90;79.00;;;30.40;64.05;94795.09;5095590;28;20668;-41
2023/07/04 00:08:39;;;;;;;0.30;0.30;;;29.90;79.00;;;30.39;63.93;94798.91;5095414;28;20192;-39
2023/07/04 00:11:08;;;;;;;0.20;0.20;;;29.90;79.00;;;30.39;64.13;94807.03;5095555;28;20209;-40
2023/07/04 00:13:37;;;;;;;0.40;0.40;;;29.90;79.00;;;30.37;64.30;94803.84;5095288;28;20186;-39
2023/07/04 00:16:13;;;;;;;0.20;0.20;;;29.90;79.10;;;30.35;64.07;94799.56;5077700;28;20218;-40
2023/07/04 00:18:44;;;;;;;0.30;0.30;;;29.90;79.10;;;30.34;64.38;94797.16;5094453;28;20263;-40
2023/07/04 00:21:12;;;;;;;0.40;0.40;;;29.90;79.10;;;30.32;64.04;94797.50;5095256;28;20186;-41
2023/07/04 00:23:45;;;;;;;0.30;0.30;;;29.90;79.10;;;30.33;63.73;94807.22;5095465;28;20214;-41
2023/07/04 00:26:17;;;;;;;0.30;0.30;;;29.80;79.10;;;30.30;64.24;94794.31;5095042;28;20249;-42
2023/07/04 00:28:46;;;;;;;0.30;0.30;;;29.80;79.10;;;30.30;64.05;94797.03;5095162;28;20186;-41
2023/07/04 00:31:20;;;;;;;0.25;0.25;;;29.80;79.10;;;30.28;63.90;94785.72;5094094;28;20527;-43
2023/07/04 00:33:47;;;;;;;0.30;0.30;;;29.80;79.20;;;30.27;64.49;94794.97;5094148;28;20225;-45
2023/07/04 00:36:18;;;;;;;0.30;0.30;;;29.80;79.20;;;30.26;64.10;94793.38;5094281;28;20705;-45
2023/07/04 00:39:06;;;;;;;0.35;0.35;;;29.80;79.20;;;30.26;64.52;94787.16;5110970;28;20233;-44
2023/07/04 00:41:33;;;;;;;0.20;0.20;;;29.80;79.30;;;30.24;64.09;94792.09;5095196;28;20735;-40
2023/07/04 00:44:13;;;;;;;0.28;0.28;;;29.80;79.20;;;30.22;64.58;94791.63;5093958;28;20202;-39
2023/07/04 00:47:10;;;;;;;0.30;0.30;;;29.80;79.20;;;30.18;64.64;94789.56;5094985;28;20588;-39
2023/07/04 00:49:50;;;;;;;0.20;0.20;;;29.80;79.40;;;30.17;64.63;94785.25;5096890;28;20182;-39
2023/07/04 00:52:23;;;;;;;0.20;0.20;;;29.80;79.30;;;30.17;64.47;94793.38;5098054;28;20629;-39
2023/07/04 00:54:57;;;;;;;0.30;0.30;;;29.80;79.30;;;30.17;64.51;94789.88;5099610;28;20197;-39
2023/07/04 00:57:31;;;;;;;0.30;0.30;;;29.80;79.50;;;30.15;64.67;94790.22;5098269;28;20185;-39
2023/07/04 01:00:13;;;;;;;0.30;0.30;;;29.70;79.50;;;30.15;64.90;94794.81;5099108;28;20180;-41
2023/07/04 01:02:40;;;;;;;0.30;0.30;;;29.70;79.40;;;30.13;64.97;94800.53;5098623;28;20602;-40
2023/07/04 01:05:10;;;;;;;0.20;0.20;;;29.70;79.30;;;30.14;65.02;94801.34;5097817;28;20230;-41
2023/07/04 01:07:47;;;;;;;0.20;0.20;;;29.70;79.40;;;30.11;64.50;94797.34;5098610;28;20195;-41
2023/07/04 01:10:38;;;;;;;0.20;0.20;;;29.70;79.40;;;30.09;64.31;94804.19;5098757;28;20178;-40
2023/07/04 01:13:38;;;;;;;0.40;0.40;;;29.70;79.50;;;30.07;64.84;94792.91;5098978;28;20261;-39
2023/07/04 01:16:14;;;;;;;0.30;0.30;;;29.60;79.60;;;30.07;64.35;94791.00;5097634;28;20186;-39
2023/07/04 01:18:46;;;;;;;0.22;0.22;;;29.60;79.50;;;30.06;64.86;94791.31;5080780;28;20183;-40
2023/07/04 01:21:17;;;;;;;0.20;0.20;;;29.60;79.50;;;30.05;65.12;94789.72;5097722;28;20178;-39
2023/07/04 01:23:59;;;;;;;0.20;0.20;;;29.60;79.50;;;30.05;65.31;94793.22;5114525;28;20693;-41
2023/07/04 01:26:36;;;;;;;0.30;0.30;;;29.60;79.50;;;30.03;65.19;94790.84;5097214;28;20234;-41
2023/07/04 01:29:09;;;;;;;0.28;0.28;;;29.60;79.70;;;30.00;65.28;94787.97;5098265;28;20186;-40
2023/07/04 01:31:36;;;;;;;0.30;0.30;;;29.60;79.60;;;30.01;64.80;94781.47;5097742;28;20181;-40
2023/07/04 01:34:05;;;;;;;0.30;0.30;;;29.60;80.40;;;30.00;65.17;94777.97;5098266;28;20189;-41
2023/07/04 01:36:38;;;;;;;0.30;0.30;;;29.60;79.60;;;30.00;64.87;94782.56;5098175;28;20191;-40
2023/07/04 01:39:14;;;;;;;0.30;0.30;;;29.60;79.70;;;29.98;64.65;94785.59;5098538;28;20166;-42
2023/07/04 01:41:46;;;;;;;0.30;0.30;;;29.60;79.70;;;29.98;65.35;94782.91;5098145;28;20219;-40
2023/07/04 01:44:16;;;;;;;0.30;0.30;;;29.60;79.70;;;29.97;64.60;94788.63;5097242;28;20263;-41
2023/07/04 01:46:44;;;;;;;0.30;0.30;;;29.60;79.80;;;29.97;65.26;94783.22;5097939;28;20218;-43
2023/07/04 01:49:11;;;;;;;0.20;0.20;;;29.60;79.80;;;29.95;65.28;94786.22;5097768;28;20183;-41
2023/07/04 01:51:41;;;;;;;0.30;0.30;;;29.60;79.80;;;29.96;65.45;94787.03;5097603;28;20190;-40
2023/07/04 01:54:16;;;;;;;0.30;0.30;;;29.60;79.90;;;29.93;65.32;94783.06;5097827;28;20201;-40
2023/07/04 01:56:47;;;;;;;0.30;0.30;;;29.50;79.70;;;29.94;65.46;94786.56;5098131;28;20272;-42
2023/07/04 01:59:15;;;;;;;0.20;0.20;;;29.50;79.90;;;29.92;64.88;94783.38;5113726;28;20213;-41
2023/07/04 02:01:43;;;;;;;0.30;0.30;;;29.50;79.80;;;29.92;65.20;94783.38;5096890;28;20215;-40
2023/07/04 02:04:11;;;;;;;0.30;0.30;;;29.50;79.80;;;29.92;65.20;94800.41;5096706;28;20251;-40
2023/07/04 02:06:38;;;;;;;0.20;0.20;;;29.50;79.90;;;29.89;65.22;94795.59;5097830;28;20218;-40
2023/07/04 02:09:06;;;;;;;0.40;0.40;;;29.50;79.80;;;29.89;65.59;94801.00;5096442;28;20243;-44
2023/07/04 02:11:36;;;;;;;0.30;0.30;;;29.50;79.90;;;29.90;64.95;94809.91;5096514;28;20646;-40
2023/07/04 02:14:03;;;;;;;0.30;0.30;;;29.50;79.90;;;29.89;65.27;94809.09;5097481;28;20237;-41
2023/07/04 02:16:30;;;;;;;0.38;0.38;;;29.50;79.90;;;29.85;65.61;94803.53;5097442;28;20197;-40
2023/07/04 02:18:57;;;;;;;0.30;0.30;;;29.50;79.90;;;29.87;65.43;94814.84;5097454;28;20221;-41
2023/07/04 02:21:26;;;;;;;0.30;0.30;;;29.40;79.90;;;29.85;65.43;94808.94;5097331;28;20199;-40
2023/07/04 02:23:54;;;;;;;0.28;0.28;;;29.40;79.90;;;29.85;65.71;94814.34;5097290;28;20269;-42
2023/07/04 02:26:22;;;;;;;0.20;0.20;;;29.40;79.90;;;29.84;65.51;94820.09;5096034;28;20234;-46
2023/07/04 02:28:50;;;;;;;0.30;0.30;;;29.40;79.90;;;29.83;65.62;94819.31;5113237;28;20285;-40
2023/07/04 02:31:17;;;;;;;0.20;0.20;;;29.40;80.00;;;29.83;65.06;94821.19;5097211;28;20247;-42
2023/07/04 02:33:44;;;;;;;0.20;0.20;;;29.40;80.00;;;29.80;65.11;94822.63;5097380;28;20190;-42
2023/07/04 02:36:12;;;;;;;0.20;0.20;;;29.40;80.00;;;29.81;65.33;94823.41;5096055;28;20645;-40
2023/07/04 02:38:39;;;;;;;0.30;0.30;;;29.40;80.00;;;29.80;65.47;94833.44;5096897;28;20201;-42
2023/07/04 02:41:09;;;;;;;0.30;0.30;;;29.40;80.00;;;29.79;65.57;94825.66;5096211;28;20206;-44
2023/07/04 02:43:38;;;;;;;0.30;0.30;;;29.40;80.00;;;29.78;65.71;94826.75;5097468;28;20226;-40
2023/07/04 02:46:07;;;;;;;0.40;0.40;;;29.40;80.10;;;29.77;66.04;94830.56;5097031;28;20218;-39
2023/07/04 02:48:40;;;;;;;0.25;0.25;;;29.40;80.10;;;29.77;65.51;94825.16;5095720;28;20195;-39
2023/07/04 02:51:07;;;;;;;0.20;0.20;;;29.40;80.10;;;29.76;65.43;94826.28;5095805;28;20294;-41
2023/07/04 02:53:34;;;;;;;0.20;0.20;;;29.40;80.10;;;29.75;65.40;94819.28;5095718;28;20590;-39
2023/07/04 02:56:02;;;;;;;0.30;0.30;;;29.40;80.20;;;29.75;65.80;94830.09;5096931;28;20199;-40
2023/07/04 02:58:30;;;;;;;0.30;0.30;;;29.40;80.20;;;29.73;65.93;94824.22;5095562;28;20206;-39
2023/07/04 03:00:58;;;;;;;0.20;0.20;;;29.40;80.20;;;29.74;65.73;94817.69;5095611;28;20224;-41
2023/07/04 03:03:27;;;;;;;0.20;0.20;;;29.30;80.10;;;29.69;66.11;94819.44;5095528;28;20202;-40
2023/07/04 03:05:59;;;;;;;0.30;0.30;;;29.40;80.20;;;29.69;65.68;94819.44;5095559;28;20275;-39
2023/07/04 03:08:27;;;;;;;0.30;0.30;;;29.30;80.20;;;29.69;66.13;94829.47;5112379;28;20202;-40
2023/07/04 03:10:54;;;;;;;0.30;0.30;;;29.30;80.20;;;29.68;66.28;94825.94;5095274;28;20267;-39
2023/07/04 03:13:24;;;;;;;0.30;0.30;;;29.30;80.20;;;29.68;66.22;94825.16;5095324;28;20202;-39
2023/07/04 03:15:52;;;;;;;0.30;0.30;;;29.30;80.20;;;29.66;65.90;94825.47;5095353;28;20664;-40
2023/07/04 03:18:20;;;;;;;0.20;0.20;;;29.30;80.30;;;29.65;65.83;94821.19;5095310;28;20198;-37
2023/07/04 03:20:48;;;;;;;0.20;0.20;;;29.30;80.30;;;29.65;66.21;94823.06;5095197;28;20255;-37
2023/07/04 03:23:17;;;;;;;0.30;0.30;;;29.30;80.30;;;29.64;66.17;94824.22;5096375;28;20248;-38
2023/07/04 03:25:44;;;;;;;0.22;0.22;;;29.30;80.30;;;29.63;65.82;94814.50;5095000;28;20279;-38
2023/07/04 03:28:13;;;;;;;0.30;0.30;;;29.30;80.30;;;29.63;65.66;94814.50;5095937;28;20293;-39
2023/07/04 03:30:41;;;;;;;0.20;0.20;;;29.30;80.40;;;29.62;66.14;94823.72;5094919;28;20546;-37
2023/07/04 03:33:10;;;;;;;0.30;0.30;;;29.30;81.20;;;29.62;65.92;94824.50;5078727;28;20208;-38
2023/07/04 03:35:40;;;;;;;0.20;0.20;;;29.30;80.40;;;29.60;66.02;94815.13;5095006;28;20197;-39
2023/07/04 03:38:25;;;;;;;0.45;0.45;;;29.30;80.40;;;29.59;66.33;94818.94;5094801;28;20201;-38
2023/07/04 03:40:52;;;;;;;0.28;0.28;;;29.30;80.40;;;29.59;66.32;94821.63;5094855;28;20621;-37
2023/07/04 03:43:22;;;;;;;0.30;0.30;;;29.30;80.40;;;29.58;65.79;94812.75;5078271;28;20283;-37
2023/07/04 03:45:50;;;;;;;0.20;0.20;;;29.30;80.50;;;29.56;65.83;94806.84;5095192;28;20186;-38
2023/07/04 03:48:17;;;;;;;0.25;0.25;;;29.20;80.40;;;29.55;66.28;94816.88;5096172;28;20217;-38
2023/07/04 03:50:45;;;;;;;0.20;0.20;;;29.30;80.50;;;29.55;66.63;94818.75;5095568;28;20584;-37
2023/07/04 03:53:12;;;;;;;0.28;0.28;;;29.20;80.50;;;29.55;66.45;94816.06;5094781;28;20182;-37
2023/07/04 03:55:40;;;;;;;0.20;0.20;;;29.20;80.50;;;29.54;66.37;94812.59;5095569;28;20183;-37
2023/07/04 03:58:07;;;;;;;0.30;0.30;;;29.20;80.50;;;29.54;66.03;94814.47;5095527;28;20205;-40
2023/07/04 04:00:34;;;;;;;0.40;0.40;;;29.20;80.50;;;29.53;66.68;94819.09;5095337;28;20268;-37
2023/07/04 04:03:01;;;;;;;0.30;0.30;;;29.20;80.50;;;29.52;66.19;94814.00;5095456;28;20281;-40
2023/07/04 04:05:29;;;;;;;0.32;0.32;;;29.20;80.60;;;29.53;66.09;94818.31;5095702;28;20300;-38
2023/07/04 04:07:56;;;;;;;0.30;0.30;;;29.10;80.60;;;29.51;66.40;94818.59;5095439;28;20668;-37
2023/07/04 04:10:23;;;;;;;0.22;0.22;;;29.20;80.60;;;29.51;66.49;94815.91;5095253;28;20225;-37
2023/07/04 04:12:50;;;;;;;0.20;0.20;;;29.20;80.70;;;29.51;65.98;94812.41;5095323;28;20277;-37
2023/07/04 04:15:17;;;;;;;0.25;0.25;;;29.20;80.60;;;29.51;66.05;94824.00;5095251;28;20194;-38
2023/07/04 04:17:45;;;;;;;0.20;0.20;;;29.20;80.60;;;29.51;66.59;94831.31;5095219;28;20669;-40
2023/07/04 04:20:12;;;;;;;0.30;0.30;;;29.20;80.60;;;29.49;66.04;94828.94;5094320;28;20247;-41
2023/07/04 04:22:45;;;;;;;0.30;0.30;;;29.20;80.70;;;29.50;66.37;94827.84;5095471;28;20198;-45
2023/07/04 04:25:14;;;;;;;0.30;0.30;;;29.20;80.60;;;29.50;66.77;94832.44;5095089;28;20181;-43
2023/07/04 04:27:43;;;;;;;0.30;0.30;;;29.20;80.70;;;29.50;66.64;94832.44;5095618;28;20207;-42
2023/07/04 04:30:11;;;;;;;0.30;0.30;;;29.20;80.60;;;29.49;66.26;94838.94;5095405;28;20194;-43
2023/07/04 04:32:40;;;;;;;0.20;0.20;;;29.20;80.70;;;29.47;66.86;94839.28;5095090;28;20214;-41
2023/07/04 04:35:09;;;;;;;0.20;0.20;;;29.20;80.70;;;29.48;66.43;94837.34;5095064;28;20186;-41
2023/07/04 04:37:36;;;;;;;0.30;0.30;;;29.20;80.70;;;29.47;66.82;94841.19;5095033;28;20237;-42
2023/07/04 04:40:06;;;;;;;0.20;0.20;;;29.20;81.50;;;29.46;66.82;94840.38;5094004;28;20519;-43
2023/07/04 04:42:34;;;;;;;0.25;0.25;;;29.20;80.70;;;29.45;66.90;94841.47;5095371;28;20238;-40
2023/07/04 04:45:04;;;;;;;0.30;0.30;;;29.10;80.70;;;29.46;66.56;94842.28;5094942;28;20517;-41
2023/07/04 04:47:34;;;;;;;0.20;0.20;;;29.10;80.70;;;29.44;66.80;94845.28;5094894;28;20217;-39
2023/07/04 04:50:02;;;;;;;0.30;0.30;;;29.10;80.80;;;29.44;66.41;94842.59;5095431;28;20181;-39
2023/07/04 04:52:33;;;;;;;0.20;0.20;;;29.10;80.70;;;29.44;66.54;94837.19;5095413;28;20200;-40
2023/07/04 04:55:01;;;;;;;0.30;0.30;;;29.10;80.80;;;29.44;66.43;94839.09;5095280;28;20166;-37
2023/07/04 04:57:29;;;;;;;0.32;0.32;;;29.10;80.80;;;29.43;66.30;94840.19;5094859;28;20202;-37
2023/07/04 04:59:59;;;;;;;0.30;0.30;;;29.10;80.80;;;29.43;66.43;94840.19;5094620;28;20309;-37
2023/07/04 05:02:29;;;;;;;0.20;0.20;;;29.10;80.80;;;29.43;66.95;94846.41;5094851;28;20567;-37
2023/07/04 05:04:59;;;;;;;0.20;0.20;;;29.10;80.90;;;29.43;66.90;94853.72;5093936;28;20194;-37
2023/07/04 05:07:27;;;;;;;0.20;0.20;;;29.10;80.90;;;29.43;66.75;94856.41;5095262;28;20685;-37
2023/07/04 05:09:58;;;;;;;0.32;0.32;;;29.10;80.90;;;29.43;66.54;94851.00;5094651;28;20248;-39
2023/07/04 05:12:25;;;;;;;0.20;0.20;;;29.10;80.90;;;29.42;67.19;94855.63;5095027;28;20189;-37
2023/07/04 05:14:52;;;;;;;0.30;0.30;;;29.10;80.90;;;29.43;66.57;94859.13;5095013;28;20186;-37
2023/07/04 05:17:19;;;;;;;0.30;0.30;;;29.10;80.90;;;29.43;67.15;94859.94;5094708;28;20187;-37
2023/07/04 05:19:50;;;;;;;0.30;0.30;;;29.10;80.90;;;29.43;66.72;94856.41;5094529;28;20205;-37
2023/07/04 05:22:19;;;;;;;0.30;0.30;;;29.10;81.00;;;29.42;67.17;94855.63;5094970;28;20261;-38
2023/07/04 05:24:46;;;;;;;0.30;0.30;;;29.10;81.00;;;29.42;67.06;94865.63;5094768;28;20251;-38
2023/07/04 05:27:15;;;;;;;0.30;0.30;;;29.10;80.90;;;29.43;66.57;94864.53;5093525;28;20291;-39
2023/07/04 05:29:46;;;;;;;0.30;0.30;;;29.10;81.00;;;29.41;66.65;94862.16;5094652;28;20685;-37
2023/07/04 05:32:13;;;;;;;0.30;0.30;;;29.10;81.00;;;29.41;66.53;94862.16;5094665;28;20266;-38
2023/07/04 05:34:40;;;;;;;0.30;0.30;;;29.10;81.00;;;29.43;67.02;94876.16;5094731;28;20553;-37
2023/07/04 05:37:07;;;;;;;0.30;0.30;;;29.10;81.00;;;29.42;67.16;94868.31;5097447;28;20609;-37
2023/07/04 05:39:35;;;;;;;0.30;0.30;;;29.10;81.00;;;29.43;66.60;94872.63;5097612;28;20195;-38
2023/07/04 05:42:02;;;;;;;0.28;0.28;;;29.10;81.00;;;29.44;66.65;94874.22;5098124;28;20276;-37
2023/07/04 05:44:29;;;;;;;0.38;0.38;;;29.10;81.00;;;29.44;67.09;94877.72;5098374;28;20218;-37
2023/07/04 05:46:56;;;;;;;0.30;0.30;;;29.10;81.00;;;29.44;67.01;94871.53;5097970;28;20715;-37
2023/07/04 05:49:23;;;;;;;0.30;0.30;;;29.10;81.00;;;29.44;66.57;94883.13;5097837;28;20187;-38
2023/07/04 05:51:51;;;;;;;0.30;0.30;;;29.10;81.10;;;29.45;67.16;94878.53;5097927;28;20221;-39
2023/07/04 05:54:18;;;;;;;0.30;0.30;;;29.10;81.10;;;29.45;66.88;94879.31;5098135;28;20281;-37
2023/07/04 05:56:52;;;;;;;0.32;0.32;;;29.10;81.90;;;29.46;67.47;94880.91;5097861;28;20198;-37
2023/07/04 05:59:19;;;;;;;0.30;0.30;;;29.10;81.10;;;29.46;66.64;94878.19;5097997;28;20239;-37
2023/07/04 06:01:47;;;;;;;0.20;0.20;;;29.10;81.10;;;29.47;66.75;94877.09;5097616;28;20198;-37
2023/07/04 06:04:14;;;;;;;0.20;0.20;;;29.20;81.10;;;29.48;66.90;94878.69;5097699;28;20229;-40
2023/07/04 06:06:51;;;;;;;0.30;0.30;;;29.20;81.10;;;29.49;67.00;94879.47;5097834;28;20190;-37
2023/07/04 06:09:22;;;;;;;0.30;0.30;;;29.20;81.20;;;29.48;67.11;94884.09;5097904;28;20523;-40
2023/07/04 06:11:50;;;;;;;0.30;0.30;;;29.20;81.20;;;29.50;67.52;94884.59;5096647;28;20197;-38
2023/07/04 06:14:26;;;;;;;0.30;0.30;;;29.10;81.10;;;29.51;67.14;94882.66;5096639;28;20190;-39
2023/07/04 06:16:55;;;;;;;0.30;0.30;;;29.20;81.20;;;29.50;67.26;94871.09;5097762;28;20182;-39
2023/07/04 06:19:24;;;;;;;0.30;0.30;;;29.20;81.20;;;29.51;67.35;94869.94;5097415;28;20205;-39
2023/07/04 06:21:51;;;;;;;0.25;0.25;;;29.20;81.20;;;29.53;67.32;94881.25;5097278;28;20285;-38
2023/07/04 06:24:20;;;;;;;0.30;0.30;;;29.20;81.30;;;29.52;66.71;94882.34;5097292;28;20640;-38
2023/07/04 06:26:47;;;;;;;0.20;0.20;;;29.20;81.30;;;29.53;67.08;94880.47;5097031;28;20299;-37
2023/07/04 06:29:14;;;;;;;0.40;0.40;;;29.20;81.30;;;29.53;67.36;94873.13;5097250;28;20190;-38
2023/07/04 06:31:42;;;;;;;0.20;0.20;;;29.20;81.30;;;29.55;66.81;94886.34;5097528;28;20528;-40
2023/07/04 06:34:11;;;;;;;0.30;0.30;;;29.20;81.30;;;29.57;67.43;94886.03;5097700;28;20633;-36
2023/07/04 06:36:38;;;;;;;0.30;0.30;;;29.30;81.30;;;29.57;67.16;94878.72;5097593;28;20187;-37
2023/07/04 06:39:05;;;;;;;0.30;0.30;;;29.20;81.30;;;29.58;67.59;94890.31;5097332;28;20197;-37
2023/07/04 06:41:32;;;;;;;0.30;0.30;;;29.20;81.30;;;29.59;67.19;94883.78;5096716;28;20292;-37
2023/07/04 06:44:00;;;;;;;0.30;0.30;;;29.20;81.30;;;29.59;66.62;94883.78;5096916;28;20187;-37
2023/07/04 06:46:27;;;;;;;0.30;0.30;;;29.20;81.30;;;29.61;67.22;94893.19;5096540;28;20650;-37
2023/07/04 06:48:54;;;;;;;0.30;0.30;;;29.30;81.40;;;29.62;67.12;94888.59;5097016;28;20316;-37
2023/07/04 06:51:29;;;;;;;0.30;0.30;;;29.30;81.40;;;29.62;67.09;94881.25;5095824;28;20197;-37
2023/07/04 06:53:57;;;;;;;0.28;0.28;;;29.30;81.40;;;29.63;67.01;94880.16;5096957;28;20186;-37
2023/07/04 06:56:24;;;;;;;0.40;0.40;;;29.30;81.30;;;29.63;66.76;94880.16;5097269;28;20696;-38
2023/07/04 06:58:54;;;;;;;0.40;0.40;;;29.30;82.20;;;29.64;67.29;94884.47;5096955;28;20652;-37
2023/07/04 07:01:26;;;;;;;0.30;0.30;;;29.30;82.30;;;29.66;67.29;94884.94;5096428;28;20252;-37
2023/07/04 07:03:56;;;;;;;0.30;0.30;;;29.30;81.50;;;29.67;67.07;94885.72;5096851;28;20521;-37
2023/07/04 07:06:25;;;;;;;0.30;0.30;;;29.30;81.40;;;29.67;66.98;94891.91;5095668;28;20194;-37
2023/07/04 07:08:53;;;;;;;0.30;0.30;;;29.30;81.50;;;29.68;67.26;94890.03;5096395;28;20237;-38
2023/07/04 07:11:21;;;;;;;0.25;0.25;;;29.30;81.40;;;29.69;67.05;94897.03;5095400;28;20200;-37
2023/07/04 07:13:49;;;;;;;0.30;0.30;;;29.30;81.50;;;29.69;67.40;94897.81;5095527;28;20221;-39
2023/07/04 07:16:23;;;;;;;0.30;0.30;;;29.30;81.40;;;29.70;66.76;94894.00;5096312;28;20194;-37
2023/07/04 07:18:52;;;;;;;0.30;0.30;;;29.30;81.40;;;29.70;66.59;94902.13;5096320;28;20206;-39
2023/07/04 07:21:24;;;;;;;0.22;0.22;;;29.30;81.40;;;29.73;67.29;94905.31;5095205;28;20218;-39
2023/07/04 07:23:52;;;;;;;0.28;0.28;;;29.30;81.40;;;29.74;67.05;94901.50;5096506;28;20222;-37
2023/07/04 07:26:25;;;;;;;0.30;0.30;;;29.30;81.30;;;29.73;67.21;94897.19;5095912;28;20612;-37
2023/07/04 07:28:54;;;;;;;0.28;0.28;;;29.30;81.40;;;29.74;67.04;94896.09;5096020;28;20216;-37
2023/07/04 07:31:25;;;;;;;0.20;0.20;;;29.30;81.40;;;29.74;67.27;94894.19;5096389;28;20365;-39
2023/07/04 07:33:59;;;;;;;0.30;0.30;;;29.30;81.40;;;29.74;66.84;94890.69;5096042;28;20179;-37
2023/07/04 07:36:37;;;;;;;0.30;0.30;;;29.30;81.30;;;29.73;67.33;94880.97;5096241;28;20190;-37
2023/07/04 07:39:08;;;;;;;0.30;0.30;;;29.30;81.40;;;29.75;67.26;94890.38;5095937;28;20264;-37
2023/07/04 07:41:40;;;;;;;0.30;0.30;;;29.30;81.40;;;29.77;67.15;94884.63;5095823;28;20522;-37
2023/07/04 07:44:08;;;;;;;0.30;0.30;;;29.30;81.40;;;29.77;66.57;94888.16;5095284;28;20177;-37
2023/07/04 07:46:36;;;;;;;0.30;0.30;;;29.30;81.50;;;29.79;67.22;94899.44;5095792;28;20201;-37
2023/07/04 07:49:04;;;;;;;0.30;0.30;;;29.30;81.40;;;29.79;66.98;94890.53;5095626;28;20279;-37
2023/07/04 07:51:32;;;;;;;0.30;0.30;;;29.30;81.40;;;29.80;67.15;94898.31;5095641;28;20268;-38
2023/07/04 07:54:01;;;;;;;0.30;0.30;;;29.40;81.50;;;29.81;66.58;94891.00;5095630;28;20247;-38
2023/07/04 07:56:37;;;;;;;0.30;0.30;;;29.30;81.50;;;29.80;67.13;94889.44;5095552;28;20194;-37
2023/07/04 07:59:05;;;;;;;0.30;0.30;;;29.40;81.50;;;29.81;66.53;94886.41;5095201;28;20233;-40
2023/07/04 08:01:34;;;;;;;0.20;0.20;;;29.40;81.50;;;29.82;66.89;94884.47;5095353;28;20192;-37
2023/07/04 08:04:03;;;;;;;0.30;0.30;;;29.40;81.50;;;29.82;66.65;94882.59;5095772;28;20194;-37
2023/07/04 08:06:37;;;;;;;0.40;0.40;;;29.40;81.50;;;29.84;67.15;94885.75;5095657;28;20183;-38
2023/07/04 08:09:10;;;;;;;0.20;0.20;;;29.40;81.40;;;29.84;66.53;94880.34;5095687;28;20279;-40
2023/07/04 08:11:39;;;;;;;0.30;0.30;;;29.40;81.40;;;29.85;66.51;94875.75;5095183;28;20178;-39
2023/07/04 08:14:06;;;;;;;0.20;0.20;;;29.40;81.70;;;29.86;67.12;94871.94;5095315;28;20277;-39
2023/07/04 08:16:49;;;;;;;0.30;0.30;;;29.40;82.20;;;29.86;66.45;94878.13;5095259;28;20308;-39
2023/07/04 08:19:20;;;;;;;0.30;0.30;;;29.40;81.40;;;29.87;66.81;94877.03;5095283;28;20187;-39
2023/07/04 08:21:47;;;;;;;0.35;0.35;;;29.40;81.40;;;29.88;66.40;94869.69;5095176;28;20186;-40
2023/07/04 08:24:16;;;;;;;0.30;0.30;;;29.40;81.40;;;29.90;66.65;94877.50;5095466;28;20209;-38
2023/07/04 08:26:45;;;;;;;0.20;0.20;;;29.40;81.40;;;29.90;66.89;94870.22;5095002;28;20260;-38
2023/07/04 08:29:14;;;;;;;0.20;0.20;;;29.40;82.30;;;29.90;66.79;94872.09;5095336;28;20202;-39
2023/07/04 08:31:42;;;;;;;0.25;0.25;;;29.40;81.40;;;29.91;66.90;94869.09;5095917;28;20198;-40
2023/07/04 08:34:10;;;;;;;0.30;0.30;;;29.40;81.40;;;29.92;66.57;94870.72;5095212;28;20186;-37
2023/07/04 08:36:39;;;;;;;0.40;0.40;;;29.40;81.40;;;29.94;66.77;94868.47;5095057;28;20229;-37
2023/07/04 08:39:07;;;;;;;0.30;0.30;;;29.40;81.40;;;29.95;66.92;94869.28;5095012;28;20198;-36
2023/07/04 08:41:53;;;;;;;0.30;0.30;;;29.40;81.40;;;29.94;66.28;94867.69;5095137;28;20210;-37
2023/07/04 08:44:24;;;;;;;0.30;0.30;;;29.50;81.50;;;29.96;66.58;94860.06;5095590;28;20645;-37
2023/07/04 08:46:55;;;;;;;0.30;0.30;;;29.50;81.40;;;29.97;66.54;94859.72;5095617;28;20179;-37
2023/07/04 08:50:08;;;;;;;0.30;0.30;;;29.50;81.40;;;29.95;66.54;94853.03;5094331;28;20206;-37
2023/07/04 08:53:08;;;;;;;0.30;0.30;;;29.50;81.40;;;29.98;66.67;94857.81;5087212;28;20218;-37
2023/07/04 08:55:45;;;;;;;0.50;0.50;;;29.50;81.40;;;29.98;66.46;94861.31;5095241;28;20184;-37
2023/07/04 08:58:18;;;;;;;0.30;0.30;;;29.50;81.40;;;29.99;66.85;94860.22;5095486;28;20187;-37
2023/07/04 09:00:45;;;;;;;0.30;0.30;;;29.50;81.40;;;30.02;66.78;94858.78;5094074;28;20274;-37
2023/07/04 09:03:31;;;;;;;0.30;0.30;;;29.50;81.40;;;30.03;66.79;94865.78;5095124;28;20606;-37
2023/07/04 09:06:19;;;;;;;0.30;0.30;;;29.50;81.30;;;30.03;66.93;94861.16;5094249;28;20201;-37
2023/07/04 09:09:13;;;;;;;0.30;0.30;;;29.50;81.30;;;30.03;66.84;94866.56;5094186;28;20225;-37
2023/07/04 09:11:41;;;;;;;0.20;0.20;;;29.60;81.30;;;30.05;66.90;94868.94;5098426;28;20179;-37
2023/07/04 09:14:25;;;;;;;0.30;0.30;;;29.60;81.30;;;30.06;66.35;94873.25;5098855;28;20198;-37
2023/07/04 09:16:56;;;;;;;0.30;0.30;;;29.50;81.10;;;30.08;66.34;94870.22;5098371;28;20175;-37
2023/07/04 09:19:23;;;;;;;0.30;0.30;;;29.60;81.20;;;30.09;66.41;94866.41;5098938;28;20183;-37
2023/07/04 09:21:51;;;;;;;0.20;0.20;;;29.60;81.20;;;30.10;66.58;94866.13;5098411;28;20195;-37
2023/07/04 09:24:18;;;;;;;0.30;0.30;;;29.60;81.20;;;30.10;66.19;94866.13;5098732;28;20191;-38
2023/07/04 09:26:53;;;;;;;0.40;0.40;;;29.60;81.10;;;30.11;66.13;94859.56;5098299;28;20285;-40
2023/07/04 09:29:24;;;;;;;0.30;0.30;;;29.60;81.20;;;30.12;66.43;94868.50;5081586;28;20240;-41
2023/07/04 09:31:55;;;;;;;0.30;0.30;;;29.60;81.20;;;30.14;66.53;94861.66;5097520;28;20229;-40
2023/07/04 09:35:04;;;;;;;0.20;0.20;;;29.60;81.20;;;30.14;66.04;94867.06;5098611;28;20590;-41
2023/07/04 09:37:31;;;;;;;0.30;0.30;;;29.60;81.20;;;30.15;66.49;94867.84;5098169;28;20520;-43
2023/07/04 09:40:04;;;;;;;0.30;0.30;;;29.60;81.10;;;30.16;66.44;94861.31;5098727;28;20201;-39
2023/07/04 09:42:31;;;;;;;0.28;0.28;;;29.70;81.20;;;30.18;66.50;94868.00;5098089;28;20615;-40
2023/07/04 09:45:11;;;;;;;0.30;0.30;;;29.70;81.10;;;30.18;66.17;94864.50;5098376;28;20178;-40
2023/07/04 09:47:44;;;;;;;0.40;0.40;;;29.70;81.20;;;30.19;66.08;94874.22;5097439;28;20244;-39
2023/07/04 09:50:26;;;;;;;0.20;0.20;;;29.70;81.10;;;30.19;66.42;94869.59;5098074;28;20181;-41
2023/07/04 09:53:10;;;;;;;0.28;0.28;;;29.70;81.00;;;30.21;66.10;94876.59;5097857;28;20209;-41
2023/07/04 09:55:41;;;;;;;0.30;0.30;;;29.60;80.90;;;30.23;66.34;94868.97;5098212;28;20203;-40
2023/07/04 09:58:25;;;;;;;0.30;0.30;;;29.70;81.00;;;30.23;66.37;94869.75;5097910;28;20622;-41
2023/07/04 10:01:13;;;;;;;0.30;0.30;;;29.70;81.00;;;30.23;66.04;94860.84;5097701;28;20274;-42
2023/07/04 10:03:45;;;;;;;0.43;0.43;;;29.70;81.00;;;30.25;66.37;94856.72;5098061;28;20207;-40
2023/07/04 10:06:29;;;;;;;0.20;0.20;;;29.70;81.80;;;30.27;66.00;94857.19;5097425;28;20183;-40
2023/07/04 10:08:57;;;;;;;0.20;0.20;;;29.80;81.10;;;30.27;66.37;94859.91;5096624;28;20652;-40
2023/07/04 10:11:35;;;;;;;0.22;0.22;;;29.80;81.00;;;30.28;65.84;94856.06;5097703;28;20252;-40
2023/07/04 10:14:07;;;;;;;0.28;0.28;;;29.80;80.90;;;30.29;65.66;94857.66;5097583;28;20202;-39
2023/07/04 10:16:36;;;;;;;0.30;0.30;;;29.80;80.90;;;30.30;65.73;94875.47;5097768;28;20182;-40
2023/07/04 10:19:16;;;;;;;0.20;0.20;;;29.80;80.90;;;30.31;66.02;94863.56;5097507;28;20198;-39
2023/07/04 10:21:51;;;;;;;0.22;0.22;;;29.80;80.90;;;30.32;65.48;94857.03;5097205;28;20288;-39
2023/07/04 10:24:24;;;;;;;0.20;0.20;;;29.80;80.90;;;30.33;66.19;94865.94;5097381;28;20202;-38
2023/07/04 10:27:07;;;;;;;0.30;0.30;;;29.80;80.90;;;30.34;65.99;94865.59;5097188;28;20627;-41
2023/07/04 10:29:47;;;;;;;0.30;0.30;;;29.80;80.90;;;30.33;65.75;94869.44;5097197;28;20211;-38
2023/07/04 10:32:16;;;;;;;0.30;0.30;;;29.80;80.80;;;30.36;66.11;94881.53;5097365;28;20190;-40
2023/07/04 10:34:47;;;;;;;0.30;0.30;;;29.80;80.80;;;30.36;65.53;94870.72;5096311;28;20191;-37
2023/07/04 10:37:26;;;;;;;0.30;0.30;;;29.80;80.80;;;30.35;65.67;94875.31;5097194;28;20179;-37